Search for airport 
image banner adimage banner adimage banner ad
image banner ad

PN79 - Passavant Hospital

Located in Pittsburgh, United States

ICAO - PN79, IATA -

Data provided by Airmate  

General information

Coordinates: N40°34'24" W80°0'43"
Elevation is 1330 feet MSL.
Magnetic variation is -07° East
View others Airports in Pennsylvania

Operational data

Special qualification required
Current time UTC:
Current local time:
Weather at : KPIT - Pittsburgh Intl ( 21 km )
METAR: KPIT 071251Z 01008KT 5SM -RA BR SCT007 OVC037 06/04 A2988 RMK AO2 SLP129 P0005 T00610044
TAF: KPIT 071133Z 0712/0818 31005KT 6SM -SHRA OVC020 FM071400 30006KT 5SM -SHRA OVC010 TEMPO 0714/0716 OVC008 FM071800 31010KT P6SM -SHRA BKN020 FM072000 31008KT P6SM BKN040 FM080500 24003KT P6SM VCSH BKN025 FM080900 30008KT P6SM VCSH BKN015
View NOTAMs / SUP AIP / TFR affecting this airport [VIEW]
Communications frequencies: [VIEW]

Runways:

Airport contact information

Address: Pittsburgh United States

Satellite view of PN79